Terminal Aerodrome Forecast
Issued by NWS

Home | Current Version | Previous Version | Text Only | Print | Product List | Glossary On
Versions: 1 2 3 4 5 6 7 8 9 10 11 12 13 14 15 16 17 18 19 20 21
000
FTAK31 PAFA 311926 AAA
TAFASC
TAF AMD
PASC 311926Z 3119/0118 03005KT P6SM OVC007
     FM312100 03008KT P6SM OVC007
     FM010500 03010KT 4SM BR OVC006=

USA.gov is the U.S. government's official web portal to all federal, state and local government web resources and services.